Time;durP1;ratioP1;P1;durP2;ratioP2;P2;SDS_P1;SDS_P2;PMS_P1;PMS_P2;Temp;Humidity;BMP_temperature;BMP_pressure;BME280_temperature;BME280_humidity;BME280_pressure;Samples;Min_cycle;Max_cycle;Signal;HPM_P1;HPM_P2
2021/03/05 00:02:27;;;;;;;26.95;14.78;;;;;;;1.98;70.59;100102.81;2082241;84;21203;-69
2021/03/05 00:05:29;;;;;;;27.73;14.78;;;;;;;1.93;70.25;100114.56;2083346;84;21165;-70
2021/03/05 00:08:31;;;;;;;28.70;13.80;;;;;;;1.90;71.18;100113.00;2084056;84;21090;-69
2021/03/05 00:11:32;;;;;;;26.75;14.45;;;;;;;1.88;70.52;100109.66;2085665;84;21186;-68
2021/03/05 00:14:34;;;;;;;34.30;14.73;;;;;;;1.89;71.11;100115.75;2083546;84;21128;-68
2021/03/05 00:17:39;;;;;;;26.87;14.55;;;;;;;1.88;70.68;100112.75;2082113;84;21234;-68
2021/03/05 00:20:45;;;;;;;29.30;15.28;;;;;;;1.84;71.67;100110.84;2083731;84;21151;-68
2021/03/05 00:23:47;;;;;;;30.57;15.20;;;;;;;1.81;71.75;100108.45;2078623;84;21156;-68
2021/03/05 00:26:49;;;;;;;29.67;15.63;;;;;;;1.79;71.87;100115.56;2082803;84;21089;-68
2021/03/05 00:29:50;;;;;;;35.20;16.32;;;;;;;1.77;71.76;100117.00;2081236;84;21149;-68
2021/03/05 00:32:52;;;;;;;29.63;15.13;;;;;;;1.78;71.23;100123.89;2088012;84;21643;-68
2021/03/05 00:35:55;;;;;;;29.32;13.48;;;;;;;1.82;71.23;100131.52;2082317;84;21131;-68
2021/03/05 00:38:56;;;;;;;28.25;14.93;;;;;;;1.84;71.26;100127.02;2089234;83;21506;-69
2021/03/05 00:41:59;;;;;;;28.50;13.60;;;;;;;1.89;71.44;100123.59;2063176;84;21143;-72
2021/03/05 00:45:03;;;;;;;33.33;16.90;;;;;;;1.90;71.93;100118.72;2088654;84;21853;-68
2021/03/05 00:48:06;;;;;;;27.98;16.05;;;;;;;1.88;71.38;100117.98;2083849;84;21102;-69
2021/03/05 00:51:08;;;;;;;29.40;15.20;;;;;;;1.86;71.71;100123.34;2082939;84;21222;-70
2021/03/05 00:54:10;;;;;;;27.02;15.20;;;;;;;1.84;71.50;100122.61;2087074;84;21194;-70
2021/03/05 00:57:12;;;;;;;37.05;15.70;;;;;;;1.87;71.66;100122.39;2079816;84;21151;-68
2021/03/05 01:00:17;;;;;;;31.12;15.68;;;;;;;1.88;71.60;100118.81;2076839;85;22467;-69
2021/03/05 01:03:20;;;;;;;27.32;14.47;;;;;;;1.90;71.69;100117.41;2073128;85;21207;-68
2021/03/05 01:06:22;;;;;;;29.92;15.25;;;;;;;1.89;71.73;100117.89;2076288;85;21225;-70
2021/03/05 01:09:24;;;;;;;30.62;15.65;;;;;;;1.87;71.77;100120.25;2046451;85;21194;-68
2021/03/05 01:12:26;;;;;;;29.60;16.15;;;;;;;1.85;71.73;100122.13;2010676;87;21607;-70
2021/03/05 01:15:28;;;;;;;31.37;15.88;;;;;;;1.82;71.93;100120.57;2038156;86;21284;-67
2021/03/05 01:18:30;;;;;;;30.10;14.90;;;;;;;1.79;71.90;100120.31;2047670;85;21794;-72
2021/03/05 01:21:32;;;;;;;31.87;16.27;;;;;;;1.79;71.93;100119.48;2050854;85;21190;-70
2021/03/05 01:24:34;;;;;;;28.27;14.78;;;;;;;1.77;72.21;100112.21;2044450;86;21137;-68
2021/03/05 01:27:36;;;;;;;35.52;16.95;;;;;;;1.73;72.98;100104.23;2008670;87;21295;-69
2021/03/05 01:30:38;;;;;;;31.68;17.07;;;;;;;1.71;72.78;100117.41;2013250;87;21194;-72
2021/03/05 01:33:41;;;;;;;31.85;15.80;;;;;;;1.69;73.06;100114.54;2072344;85;21151;-69
2021/03/05 01:36:42;;;;;;;32.60;16.10;;;;;;;1.67;72.59;100121.20;2071717;85;21139;-71
2021/03/05 01:39:44;;;;;;;27.30;14.70;;;;;;;1.68;72.62;100127.27;2069989;85;21110;-68
2021/03/05 01:42:46;;;;;;;30.45;15.78;;;;;;;1.71;72.68;100121.81;2073206;85;21581;-69
2021/03/05 01:45:48;;;;;;;33.83;16.45;;;;;;;1.73;72.65;100118.14;2073473;85;21547;-69
2021/03/05 01:48:51;;;;;;;30.05;15.90;;;;;;;1.78;72.87;100121.75;2051214;85;21194;-68
2021/03/05 01:51:52;;;;;;;39.53;17.27;;;;;;;1.83;72.86;100116.16;2014105;87;21514;-68
2021/03/05 01:54:54;;;;;;;40.35;16.50;;;;;;;1.85;72.82;100131.29;2068005;85;21291;-68
2021/03/05 01:57:57;;;;;;;41.23;17.27;;;;;;;1.85;72.77;100132.12;2074302;83;22645;-72
2021/03/05 02:01:06;;;;;;;28.87;16.48;;;;;;;1.85;72.91;100135.22;2075905;84;21598;-68
2021/03/05 02:04:11;;;;;;;35.60;17.90;;;;;;;1.84;72.99;100138.79;2073635;83;21167;-71
2021/03/05 02:07:12;;;;;;;36.05;16.73;;;;;;;1.86;73.03;100153.88;2073624;85;21183;-70
2021/03/05 02:10:14;;;;;;;33.48;16.87;;;;;;;1.89;73.14;100141.91;2033980;86;21143;-69
2021/03/05 02:13:16;;;;;;;32.30;16.95;;;;;;;1.90;73.13;100147.02;2073595;85;21539;-68
2021/03/05 02:16:54;;;;;;;38.15;19.27;;;;;;;1.90;73.29;100144.88;2073279;84;21281;-68
2021/03/05 02:20:41;;;;;;;38.63;18.25;;;;;;;1.88;73.33;100142.36;2074291;85;21189;-70
2021/03/05 02:24:03;;;;;;;37.70;19.82;;;;;;;1.86;73.76;100146.89;2079472;85;21162;-71
2021/03/05 02:27:32;;;;;;;37.70;18.90;;;;;;;1.82;73.66;100151.14;2075640;85;21103;-72
2021/03/05 02:31:24;;;;;;;39.27;19.12;;;;;;;1.78;74.16;100145.30;2074329;84;21174;-70
2021/03/05 02:34:33;;;;;;;39.20;19.73;;;;;;;1.73;74.40;100137.77;2077114;85;21151;-73
2021/03/05 02:37:39;;;;;;;39.20;19.77;;;;;;;1.73;74.16;100144.78;2075858;85;21611;-73
2021/03/05 02:40:43;;;;;;;35.98;19.98;;;;;;;1.73;74.39;100139.55;2071559;85;21168;-70
2021/03/05 02:43:45;;;;;;;41.85;20.90;;;;;;;1.74;74.32;100139.91;2070038;85;21690;-70
2021/03/05 02:46:46;;;;;;;45.48;21.45;;;;;;;1.74;74.33;100139.42;2074460;85;21137;-71
2021/03/05 02:49:55;;;;;;;46.30;22.82;;;;;;;1.74;74.47;100153.81;2074080;85;21648;-71
2021/03/05 02:53:01;;;;;;;48.05;23.00;;;;;;;1.73;74.45;100152.16;2070936;85;21265;-69
2021/03/05 02:56:07;;;;;;;37.20;20.40;;;;;;;1.72;74.65;100145.27;2075269;84;21116;-70
2021/03/05 02:59:12;;;;;;;39.18;19.75;;;;;;;1.68;75.02;100151.64;2073201;84;21176;-70
2021/03/05 03:02:14;;;;;;;44.23;22.00;;;;;;;1.68;74.62;100154.25;2075116;84;21124;-68
2021/03/05 03:05:17;;;;;;;37.58;20.15;;;;;;;1.68;74.82;100157.34;2074599;83;21545;-73
2021/03/05 03:08:20;;;;;;;37.67;21.05;;;;;;;1.68;74.86;100162.11;2078461;84;21305;-68
2021/03/05 03:11:23;;;;;;;46.88;23.12;;;;;;;1.68;74.97;100163.41;2076019;84;21170;-71
2021/03/05 03:14:26;;;;;;;49.27;23.05;;;;;;;1.69;75.05;100161.17;2075674;84;21180;-69
2021/03/05 03:17:29;;;;;;;42.03;21.40;;;;;;;1.67;75.23;100159.61;2074053;84;21216;-70
2021/03/05 03:20:30;;;;;;;35.73;19.67;;;;;;;1.60;75.60;100173.58;2083625;84;21651;-72
2021/03/05 03:23:35;;;;;;;39.33;21.48;;;;;;;1.54;75.95;100174.02;2078042;84;21333;-68
2021/03/05 03:26:38;;;;;;;37.15;19.30;;;;;;;1.49;76.76;100170.88;2074796;84;21191;-69
2021/03/05 03:29:41;;;;;;;35.17;19.98;;;;;;;1.43;76.82;100180.47;2059216;84;21132;-72
2021/03/05 03:32:44;;;;;;;39.05;20.48;;;;;;;1.36;76.55;100174.84;2077884;84;21531;-71
2021/03/05 03:35:47;;;;;;;37.98;20.80;;;;;;;1.36;76.44;100175.31;2078698;84;21180;-70
2021/03/05 03:38:49;;;;;;;43.92;22.37;;;;;;;1.37;76.34;100179.59;2061836;84;21219;-68
2021/03/05 03:41:51;;;;;;;35.23;20.27;;;;;;;1.33;76.62;100182.41;2074888;84;21183;-68
2021/03/05 03:44:54;;;;;;;35.75;20.27;;;;;;;1.19;76.63;100185.63;2063172;84;21685;-68
2021/03/05 03:47:57;;;;;;;33.40;18.12;;;;;;;1.07;77.46;100191.19;2072465;84;21221;-69
2021/03/05 03:51:05;;;;;;;28.47;15.23;;;;;;;0.95;77.34;100201.17;2075352;84;21199;-68
2021/03/05 03:54:08;;;;;;;25.77;15.98;;;;;;;0.82;77.48;100194.64;2071136;84;21138;-69
2021/03/05 03:57:14;;;;;;;30.90;18.02;;;;;;;0.65;77.67;100202.30;2071803;84;21159;-68
2021/03/05 04:00:18;;;;;;;26.90;16.10;;;;;;;0.49;78.40;100195.93;2074116;84;21708;-68
2021/03/05 04:03:25;;;;;;;33.05;17.62;;;;;;;0.41;78.17;100208.64;2071812;83;21203;-69
2021/03/05 04:06:29;;;;;;;27.13;16.73;;;;;;;0.28;79.13;100203.36;2075055;84;21186;-68
2021/03/05 04:09:32;;;;;;;25.17;15.03;;;;;;;0.12;78.69;100213.97;2073873;84;21208;-69
2021/03/05 04:12:34;;;;;;;25.05;13.90;;;;;;;0.07;79.24;100218.63;2052183;84;21228;-70
2021/03/05 04:15:38;;;;;;;23.22;14.28;;;;;;;0.01;80.36;100223.41;2074013;84;21152;-69
2021/03/05 04:18:40;;;;;;;19.23;11.40;;;;;;;-0.06;80.26;100226.41;2071989;84;21197;-68
2021/03/05 04:21:42;;;;;;;21.15;11.88;;;;;;;-0.11;80.41;100232.38;2077824;84;21622;-68
2021/03/05 04:24:44;;;;;;;16.32;10.35;;;;;;;-0.14;80.33;100239.09;2078338;84;21164;-68
2021/03/05 04:27:46;;;;;;;16.15;10.23;;;;;;;-0.15;80.62;100237.87;2077469;84;21155;-68
2021/03/05 04:30:48;;;;;;;15.72;10.65;;;;;;;-0.18;80.65;100248.02;2076011;84;21180;-69
2021/03/05 04:33:49;;;;;;;17.52;11.45;;;;;;;-0.19;80.41;100257.27;2075214;84;21572;-68
2021/03/05 04:36:51;;;;;;;19.27;11.22;;;;;;;-0.23;81.34;100257.89;2077735;84;21535;-68
2021/03/05 04:39:53;;;;;;;18.98;11.95;;;;;;;-0.25;80.47;100264.52;2071719;84;21175;-68
2021/03/05 04:42:55;;;;;;;16.67;10.75;;;;;;;-0.22;80.58;100272.63;2073540;84;21114;-70
2021/03/05 04:45:56;;;;;;;17.20;11.15;;;;;;;-0.16;80.59;100277.47;2075211;84;21583;-68
2021/03/05 04:48:58;;;;;;;16.57;9.65;;;;;;;-0.17;80.74;100277.55;2075527;84;21237;-68
2021/03/05 04:52:00;;;;;;;17.73;9.70;;;;;;;-0.22;80.66;100279.62;2078639;84;21954;-68
2021/03/05 04:55:02;;;;;;;17.00;8.83;;;;;;;-0.27;80.95;100283.33;2077315;84;21149;-68
2021/03/05 04:58:04;;;;;;;14.23;8.90;;;;;;;-0.29;80.74;100283.05;2079642;84;21134;-67
2021/03/05 05:01:06;;;;;;;16.05;10.08;;;;;;;-0.30;80.46;100289.21;2082392;84;21098;-68
2021/03/05 05:04:08;;;;;;;18.15;10.53;;;;;;;-0.30;80.61;100302.25;2083541;84;21174;-68
2021/03/05 05:07:10;;;;;;;25.30;12.78;;;;;;;-0.31;80.35;100287.52;2082203;84;21214;-68
2021/03/05 05:10:13;;;;;;;20.92;12.93;;;;;;;-0.31;80.53;100293.59;2088948;84;21154;-71
2021/03/05 05:13:15;;;;;;;23.05;14.10;;;;;;;-0.32;80.74;100294.98;2063247;84;21132;-68
2021/03/05 05:16:17;;;;;;;22.75;12.80;;;;;;;-0.32;80.64;100296.28;2076591;84;21669;-67
2021/03/05 05:19:19;;;;;;;28.20;15.03;;;;;;;-0.30;80.31;100302.25;2085375;84;21191;-70
2021/03/05 05:22:21;;;;;;;26.70;16.52;;;;;;;-0.32;80.58;100302.33;2080878;84;21647;-69
2021/03/05 05:25:23;;;;;;;24.92;15.98;;;;;;;-0.34;81.27;100303.34;2080867;84;21115;-68
2021/03/05 05:28:25;;;;;;;25.75;15.25;;;;;;;-0.36;80.96;100304.77;2085452;84;21127;-71
2021/03/05 05:31:26;;;;;;;23.92;15.00;;;;;;;-0.37;81.12;100300.45;2079494;84;21484;-71
2021/03/05 05:34:28;;;;;;;25.48;15.00;;;;;;;-0.34;80.96;100309.42;2083564;84;21142;-71
2021/03/05 05:37:30;;;;;;;26.10;16.50;;;;;;;-0.31;80.68;100312.28;2083292;84;21159;-72
2021/03/05 05:40:32;;;;;;;30.85;19.57;;;;;;;-0.28;80.76;100319.48;2080978;84;21799;-70
2021/03/05 05:43:35;;;;;;;31.93;20.00;;;;;;;-0.23;80.83;100321.79;2083625;84;21190;-72
2021/03/05 05:46:39;;;;;;;28.12;16.02;;;;;;;-0.18;80.74;100336.70;2081252;84;21827;-73
2021/03/05 05:49:44;;;;;;;20.52;13.60;;;;;;;-0.18;80.61;100337.17;2082620;84;21175;-75
2021/03/05 05:52:50;;;;;;;19.95;12.05;;;;;;;-0.23;80.44;100343.95;2082478;84;21183;-71
2021/03/05 05:55:52;;;;;;;19.45;12.05;;;;;;;-0.29;80.32;100349.55;2080977;84;22342;-72
2021/03/05 05:58:54;;;;;;;16.80;10.90;;;;;;;-0.32;80.14;100356.25;2077454;84;21582;-70
2021/03/05 06:01:57;;;;;;;26.50;14.15;;;;;;;-0.35;79.74;100358.58;2084496;84;21115;-71
2021/03/05 06:04:59;;;;;;;25.27;17.42;;;;;;;-0.41;79.75;100355.50;2081483;83;21187;-70
2021/03/05 06:08:02;;;;;;;24.85;15.13;;;;;;;-0.38;80.15;100370.96;2082550;84;21676;-69
2021/03/05 06:11:04;;;;;;;20.72;15.08;;;;;;;-0.38;80.11;100363.97;2078152;83;21202;-69
2021/03/05 06:14:09;;;;;;;23.62;14.35;;;;;;;-0.43;79.93;100376.44;2085121;84;21274;-70
2021/03/05 06:17:11;;;;;;;26.82;15.18;;;;;;;-0.45;80.20;100375.71;2080924;84;21622;-71
2021/03/05 06:20:15;;;;;;;30.45;18.55;;;;;;;-0.46;80.28;100393.09;2084811;84;21230;-70
2021/03/05 06:23:18;;;;;;;25.75;16.30;;;;;;;-0.44;80.14;100390.88;2077545;84;21190;-70
2021/03/05 06:26:20;;;;;;;23.65;14.00;;;;;;;-0.42;80.30;100401.60;2080984;84;21179;-70
2021/03/05 06:29:25;;;;;;;20.15;11.97;;;;;;;-0.36;80.01;100405.62;2078868;84;21151;-69
2021/03/05 06:32:42;;;;;;;16.42;11.22;;;;;;;-0.36;79.74;100410.83;2081562;84;21116;-70
2021/03/05 06:35:44;;;;;;;26.37;12.63;;;;;;;-0.28;79.90;100411.23;2086995;84;21551;-71
2021/03/05 06:38:48;;;;;;;40.20;16.15;;;;;;;-0.29;79.29;100420.79;2083412;84;21165;-70
2021/03/05 06:42:02;;;;;;;30.85;13.30;;;;;;;-0.27;79.51;100437.66;2080505;84;21607;-69
2021/03/05 06:45:12;;;;;;;32.35;14.05;;;;;;;-0.25;79.08;100441.86;2080345;84;21203;-69
2021/03/05 06:48:13;;;;;;;16.10;9.83;;;;;;;-0.24;79.49;100458.34;2083587;84;21166;-70
2021/03/05 06:51:16;;;;;;;13.55;7.62;;;;;;;-0.18;79.36;100466.28;2082271;84;21174;-71
2021/03/05 06:54:18;;;;;;;20.72;9.83;;;;;;;-0.16;78.78;100480.08;2082849;84;21242;-71
2021/03/05 06:57:26;;;;;;;16.73;8.78;;;;;;;-0.16;78.96;100488.73;2084335;84;21158;-70
2021/03/05 07:00:28;;;;;;;15.55;8.55;;;;;;;-0.13;78.59;100488.56;2085389;83;21126;-71
2021/03/05 07:03:29;;;;;;;18.05;9.75;;;;;;;-0.14;78.39;100493.41;2080890;84;22282;-70
2021/03/05 07:06:31;;;;;;;17.85;10.08;;;;;;;-0.08;78.10;100499.56;2083545;84;21230;-69
2021/03/05 07:09:45;;;;;;;18.07;9.33;;;;;;;-0.07;78.11;100492.58;2080926;83;21176;-72
2021/03/05 07:13:03;;;;;;;14.80;8.85;;;;;;;0.00;78.11;100499.13;2084464;84;21999;-69
2021/03/05 07:16:06;;;;;;;23.47;9.68;;;;;;;0.04;78.18;100508.91;2084425;84;21196;-69
2021/03/05 07:19:09;;;;;;;16.25;8.70;;;;;;;0.08;77.86;100506.48;2059721;84;21182;-70
2021/03/05 07:22:13;;;;;;;16.35;8.08;;;;;;;0.11;78.10;100514.97;2083720;84;21152;-70
2021/03/05 07:25:20;;;;;;;22.73;9.33;;;;;;;0.13;77.98;100519.64;2088472;84;21083;-72
2021/03/05 07:28:25;;;;;;;20.02;9.58;;;;;;;0.17;78.14;100523.77;2084478;84;21146;-72
2021/03/05 07:31:30;;;;;;;13.65;7.58;;;;;;;0.16;77.57;100522.53;2083978;84;21181;-70
2021/03/05 07:34:53;;;;;;;20.60;10.20;;;;;;;0.15;77.17;100535.22;2081360;84;21179;-68
2021/03/05 07:37:59;;;;;;;18.57;9.20;;;;;;;0.17;77.39;100539.42;2079457;84;21512;-68
2021/03/05 07:41:02;;;;;;;13.53;8.43;;;;;;;0.21;76.16;100548.73;2066301;84;21720;-69
2021/03/05 07:44:05;;;;;;;13.72;6.97;;;;;;;0.23;75.85;100551.27;2082674;83;21135;-69
2021/03/05 07:47:13;;;;;;;16.42;7.10;;;;;;;0.09;74.78;100543.41;2059362;84;21227;-71
2021/03/05 07:50:20;;;;;;;18.00;8.50;;;;;;;0.02;75.10;100551.20;2081314;84;21579;-69
2021/03/05 07:53:22;;;;;;;14.78;6.83;;;;;;;0.02;75.68;100564.25;2084236;84;21607;-69
2021/03/05 07:56:49;;;;;;;14.55;6.50;;;;;;;0.01;75.81;100571.25;2062727;84;21175;-72
2021/03/05 07:59:52;;;;;;;10.80;5.80;;;;;;;0.04;75.52;100576.28;2081912;84;21213;-69
2021/03/05 08:02:59;;;;;;;14.05;5.80;;;;;;;0.03;75.57;100579.83;2079792;84;21754;-71
2021/03/05 08:06:01;;;;;;;13.90;7.08;;;;;;;0.19;75.88;100578.46;2079105;84;21159;-70
2021/03/05 08:09:15;;;;;;;13.40;8.50;;;;;;;0.37;74.95;100582.63;2056417;84;21715;-70
2021/03/05 08:12:37;;;;;;;20.02;9.63;;;;;;;0.20;74.16;100594.05;2077525;84;21118;-71
2021/03/05 08:15:39;;;;;;;14.93;6.80;;;;;;;0.53;73.87;100596.06;2075882;84;21174;-69
2021/03/05 08:18:41;;;;;;;16.05;7.67;;;;;;;1.02;71.83;100597.89;2056491;84;21136;-70
2021/03/05 08:21:58;;;;;;;9.30;6.58;;;;;;;1.56;72.57;100605.00;2076607;84;21588;-69
2021/03/05 08:25:33;;;;;;;8.35;5.05;;;;;;;2.06;71.65;100587.83;2073704;84;21133;-70
2021/03/05 08:28:42;;;;;;;10.90;5.00;;;;;;;2.59;71.20;100595.20;2071966;84;21113;-71
2021/03/05 08:31:44;;;;;;;9.73;5.62;;;;;;;3.09;70.31;100599.20;2078540;84;21075;-71
2021/03/05 08:34:46;;;;;;;9.70;5.35;;;;;;;2.73;67.50;100613.88;2079179;84;21992;-70
2021/03/05 08:38:14;;;;;;;9.60;5.90;;;;;;;2.14;67.44;100603.87;2074971;84;21320;-71
2021/03/05 08:41:24;;;;;;;11.00;5.00;;;;;;;1.79;67.69;100614.83;2075267;83;21671;-70
2021/03/05 08:44:23;;;;;;;7.75;4.33;;;;;;;1.40;67.56;100623.89;2070313;84;21191;-69
2021/03/05 08:47:25;;;;;;;6.87;3.25;;;;;;;1.19;67.96;100616.45;2073077;84;21145;-69
2021/03/05 08:50:33;;;;;;;11.05;3.95;;;;;;;1.06;69.08;100624.66;2070003;84;21076;-70
2021/03/05 08:53:45;;;;;;;8.78;3.25;;;;;;;1.23;69.96;100633.61;2075522;84;21165;-72
2021/03/05 08:56:52;;;;;;;7.50;4.00;;;;;;;1.18;69.05;100636.97;2076857;84;21143;-69
2021/03/05 08:59:55;;;;;;;7.95;2.62;;;;;;;1.19;68.29;100632.14;2074479;84;21591;-70
2021/03/05 09:03:14;;;;;;;9.03;2.58;;;;;;;1.20;66.39;100635.11;2075488;84;21183;-70
2021/03/05 09:06:16;;;;;;;6.45;2.80;;;;;;;1.16;66.12;100631.49;2076547;84;21213;-70
2021/03/05 09:09:19;;;;;;;5.67;3.15;;;;;;;1.24;65.25;100642.30;2074507;84;21136;-71
2021/03/05 09:12:25;;;;;;;4.67;3.05;;;;;;;1.78;64.79;100646.34;2072061;84;21172;-70
2021/03/05 09:15:40;;;;;;;5.83;2.90;;;;;;;2.45;63.95;100631.96;2070515;84;21119;-71
2021/03/05 09:18:42;;;;;;;9.25;2.87;;;;;;;3.20;63.88;100639.94;2083289;84;21711;-71
2021/03/05 09:21:44;;;;;;;6.58;3.40;;;;;;;3.21;61.09;100636.83;2075068;84;21100;-71
2021/03/05 09:24:52;;;;;;;6.15;3.10;;;;;;;2.96;61.61;100646.42;2075874;84;21172;-72
2021/03/05 09:27:56;;;;;;;6.53;2.70;;;;;;;2.69;60.83;100649.95;2068940;84;21151;-72
2021/03/05 09:30:58;;;;;;;6.17;3.20;;;;;;;2.55;62.05;100655.27;2062978;84;21551;-73
2021/03/05 09:34:07;;;;;;;7.75;3.22;;;;;;;2.26;63.23;100653.75;2075302;84;21612;-72
2021/03/05 09:37:24;;;;;;;9.10;3.30;;;;;;;2.48;63.83;100652.71;2071088;84;21104;-71
2021/03/05 09:40:28;;;;;;;8.73;3.00;;;;;;;2.71;61.48;100655.10;2070214;84;21186;-71
2021/03/05 09:43:31;;;;;;;5.05;3.00;;;;;;;2.63;60.99;100663.94;2041666;86;21647;-71
2021/03/05 09:46:36;;;;;;;7.67;3.10;;;;;;;2.54;59.96;100665.40;1992737;87;21521;-72
2021/03/05 09:49:39;;;;;;;7.35;3.42;;;;;;;3.06;60.50;100672.83;2003731;87;21734;-71
2021/03/05 09:52:41;;;;;;;8.50;4.40;;;;;;;3.28;59.45;100669.58;2037392;86;21139;-71
2021/03/05 09:55:50;;;;;;;5.12;2.70;;;;;;;3.25;60.93;100675.87;2016616;86;21145;-71
2021/03/05 09:58:58;;;;;;;3.50;2.10;;;;;;;2.86;59.57;100682.88;2035272;86;21175;-72
2021/03/05 10:02:03;;;;;;;4.97;2.20;;;;;;;2.54;58.46;100692.91;2035756;86;21223;-71
2021/03/05 10:05:06;;;;;;;4.25;2.33;;;;;;;2.31;58.14;100688.31;1997441;87;21173;-71
2021/03/05 10:08:16;;;;;;;6.10;2.22;;;;;;;2.46;58.23;100696.50;2035463;84;21189;-71
2021/03/05 10:11:32;;;;;;;4.25;2.67;;;;;;;2.75;58.71;100696.34;2058897;84;21218;-71
2021/03/05 10:14:37;;;;;;;10.38;3.20;;;;;;;2.64;56.20;100701.81;2076263;84;21169;-71
2021/03/05 10:17:39;;;;;;;6.00;2.83;;;;;;;2.61;57.34;100707.73;2076765;84;21128;-71
2021/03/05 10:20:52;;;;;;;7.00;2.37;;;;;;;2.43;55.51;100695.39;2074401;84;21144;-72
2021/03/05 10:23:54;;;;;;;7.15;2.70;;;;;;;2.43;56.83;100713.72;2072251;84;21561;-72
2021/03/05 10:27:11;;;;;;;10.48;3.60;;;;;;;2.61;56.90;100716.91;2078662;84;21116;-72
2021/03/05 10:30:14;;;;;;;5.65;2.77;;;;;;;3.02;55.42;100719.40;2070738;84;21623;-72
2021/03/05 10:33:44;;;;;;;4.25;2.50;;;;;;;3.44;55.20;100718.73;2079675;84;21609;-73
2021/03/05 10:36:46;;;;;;;7.95;2.87;;;;;;;3.23;54.88;100722.81;2076119;84;21726;-71
2021/03/05 10:39:49;;;;;;;10.20;4.85;;;;;;;2.75;53.81;100738.27;2018221;87;21540;-70
2021/03/05 10:42:52;;;;;;;6.50;3.67;;;;;;;2.30;55.07;100743.78;2079681;84;21514;-71
2021/03/05 10:45:55;;;;;;;7.12;3.77;;;;;;;2.24;55.72;100742.39;2082178;83;21104;-70
2021/03/05 10:48:56;;;;;;;8.08;3.87;;;;;;;2.29;55.93;100738.66;2074799;84;21199;-70
2021/03/05 10:51:58;;;;;;;5.72;3.30;;;;;;;2.55;56.34;100741.73;2074570;84;21154;-71
2021/03/05 10:55:00;;;;;;;3.27;2.35;;;;;;;2.90;55.41;100739.86;2077213;84;21158;-72
2021/03/05 10:58:03;;;;;;;5.95;2.80;;;;;;;2.96;54.90;100739.48;2081131;84;21233;-71
2021/03/05 11:01:05;;;;;;;6.33;3.30;;;;;;;2.86;55.33;100734.47;2069443;85;21185;-70
2021/03/05 11:04:07;;;;;;;7.08;2.98;;;;;;;2.72;55.25;100752.42;2075730;84;21182;-71
2021/03/05 11:07:12;;;;;;;5.53;3.30;;;;;;;2.60;55.50;100746.20;2076120;84;21171;-71
2021/03/05 11:10:15;;;;;;;8.90;2.75;;;;;;;2.59;55.99;100751.53;2070422;85;21503;-69
2021/03/05 11:13:17;;;;;;;7.03;2.80;;;;;;;2.58;54.08;100757.25;2059271;85;21195;-70
2021/03/05 11:16:19;;;;;;;6.92;2.80;;;;;;;2.67;55.25;100754.02;2071764;85;21171;-71
2021/03/05 11:19:24;;;;;;;5.28;2.98;;;;;;;2.99;53.52;100756.31;2070573;85;21183;-69
2021/03/05 11:22:26;;;;;;;10.75;3.47;;;;;;;3.02;54.41;100760.52;2073062;85;21178;-69
2021/03/05 11:25:28;;;;;;;4.87;2.72;;;;;;;3.02;53.55;100757.42;2073651;85;21144;-68
2021/03/05 11:28:30;;;;;;;7.00;2.60;;;;;;;2.96;51.38;100753.03;2071723;85;22303;-69
2021/03/05 11:31:34;;;;;;;5.12;3.02;;;;;;;2.91;52.58;100757.30;2069964;85;21133;-70
2021/03/05 11:34:35;;;;;;;8.05;3.35;;;;;;;2.83;51.59;100767.44;2069637;85;21183;-71
2021/03/05 11:37:37;;;;;;;13.85;5.50;;;;;;;2.74;51.37;100758.88;2077433;85;21100;-71
2021/03/05 11:40:39;;;;;;;8.23;3.52;;;;;;;2.89;52.75;100767.03;2070594;83;21587;-70
2021/03/05 11:43:47;;;;;;;6.28;2.67;;;;;;;2.98;51.17;100765.58;2071812;85;21195;-70
2021/03/05 11:46:49;;;;;;;5.92;2.58;;;;;;;3.05;51.72;100762.45;2075068;85;21190;-69
2021/03/05 11:49:51;;;;;;;5.55;2.00;;;;;;;2.99;51.86;100769.42;2087419;84;21186;-70
2021/03/05 11:52:53;;;;;;;9.50;2.47;;;;;;;2.93;49.91;100769.84;2079206;85;21180;-70
2021/03/05 11:55:56;;;;;;;7.53;2.60;;;;;;;2.88;51.56;100771.92;2074849;85;21596;-70
2021/03/05 11:58:59;;;;;;;4.60;2.20;;;;;;;2.86;49.33;100779.03;2063504;85;21198;-70
2021/03/05 12:02:02;;;;;;;3.58;2.20;;;;;;;2.92;50.22;100778.63;2054976;85;21180;-69
2021/03/05 12:05:05;;;;;;;9.13;3.77;;;;;;;3.10;49.97;100786.59;2049907;85;21175;-69
2021/03/05 12:08:07;;;;;;;8.35;3.17;;;;;;;3.04;51.03;100784.38;2074011;84;21250;-68
2021/03/05 12:11:09;;;;;;;4.83;2.30;;;;;;;2.89;50.15;100789.31;2080198;84;21539;-69
2021/03/05 12:14:12;;;;;;;5.15;2.08;;;;;;;2.87;48.44;100785.95;2077956;84;21195;-70
2021/03/05 12:17:14;;;;;;;5.50;2.77;;;;;;;2.82;49.49;100791.98;2078359;84;21134;-70
2021/03/05 12:20:17;;;;;;;5.75;2.85;;;;;;;2.85;50.65;100787.84;2074747;83;21223;-69
2021/03/05 12:23:19;;;;;;;3.85;2.00;;;;;;;2.86;50.56;100795.59;2076812;84;21672;-69
2021/03/05 12:26:21;;;;;;;4.42;2.27;;;;;;;2.79;49.56;100793.47;2073644;84;21157;-71
2021/03/05 12:29:22;;;;;;;3.08;1.95;;;;;;;2.69;49.73;100798.01;2078846;84;21235;-69
2021/03/05 12:32:24;;;;;;;8.20;2.40;;;;;;;2.71;49.90;100797.92;2042798;85;21202;-70
2021/03/05 12:35:26;;;;;;;7.50;3.17;;;;;;;2.74;50.58;100794.27;2074288;84;21177;-69
2021/03/05 12:38:27;;;;;;;3.85;2.20;;;;;;;2.76;51.03;100797.16;2077250;84;21332;-68
2021/03/05 12:41:29;;;;;;;7.92;2.77;;;;;;;2.96;50.95;100797.16;2076154;84;21219;-69
2021/03/05 12:44:34;;;;;;;3.70;2.00;;;;;;;3.36;49.86;100805.81;2059284;84;21191;-69
2021/03/05 12:47:36;;;;;;;4.22;2.10;;;;;;;3.62;48.16;100807.61;2079382;83;21069;-69
2021/03/05 12:50:37;;;;;;;3.95;2.15;;;;;;;3.58;47.39;100817.02;2077281;83;21156;-68
2021/03/05 12:53:39;;;;;;;10.82;3.87;;;;;;;3.55;49.10;100824.27;2081932;84;21084;-70
2021/03/05 12:56:41;;;;;;;4.60;2.77;;;;;;;3.55;47.67;100820.33;2077066;84;21639;-71
2021/03/05 12:59:43;;;;;;;9.83;4.10;;;;;;;3.52;48.80;100827.06;2063179;83;21550;-69
2021/03/05 13:02:45;;;;;;;8.78;4.20;;;;;;;3.42;48.71;100826.86;2046711;85;21225;-69
2021/03/05 13:05:47;;;;;;;8.48;3.75;;;;;;;3.40;48.48;100828.73;2043117;85;21171;-68
2021/03/05 13:08:49;;;;;;;8.05;3.20;;;;;;;3.18;48.99;100833.73;2045396;85;21180;-68
2021/03/05 13:11:51;;;;;;;4.55;2.27;;;;;;;3.09;49.73;100846.52;2044056;85;21172;-68
2021/03/05 13:14:53;;;;;;;6.45;2.52;;;;;;;3.04;49.65;100846.45;2047622;85;21216;-70
2021/03/05 13:17:55;;;;;;;6.62;2.40;;;;;;;2.97;49.28;100849.95;2026437;85;21173;-67
2021/03/05 13:20:58;;;;;;;7.53;3.05;;;;;;;2.97;48.64;100853.05;2046914;85;21228;-68
2021/03/05 13:23:59;;;;;;;6.83;2.60;;;;;;;2.97;49.82;100849.11;2046664;85;22134;-68
2021/03/05 13:27:01;;;;;;;5.40;2.75;;;;;;;2.99;49.45;100849.39;2045790;85;21642;-68
2021/03/05 13:30:06;;;;;;;5.40;2.37;;;;;;;3.05;49.39;100852.91;2047100;85;21246;-68
2021/03/05 13:33:08;;;;;;;4.60;2.30;;;;;;;3.12;49.31;100854.66;2044200;85;21174;-69
2021/03/05 13:36:12;;;;;;;4.95;2.80;;;;;;;3.31;48.93;100855.13;2045281;85;21198;-68
2021/03/05 13:39:13;;;;;;;6.87;2.75;;;;;;;3.28;48.12;100860.57;2044166;85;21214;-69
2021/03/05 13:42:15;;;;;;;6.67;2.40;;;;;;;3.01;48.65;100865.00;2046674;85;21182;-68
2021/03/05 13:45:17;;;;;;;5.12;2.40;;;;;;;2.94;49.29;100867.19;2047162;85;21181;-68
2021/03/05 13:48:20;;;;;;;6.60;2.60;;;;;;;2.98;49.43;100866.04;2044434;85;21539;-68
2021/03/05 13:51:22;;;;;;;6.15;2.25;;;;;;;2.95;49.20;100875.41;2047546;85;21175;-69
2021/03/05 13:54:24;;;;;;;7.45;3.22;;;;;;;2.87;48.89;100865.89;2044442;85;21184;-68
2021/03/05 13:57:27;;;;;;;9.58;3.22;;;;;;;2.83;48.63;100870.98;2044247;85;21325;-71
2021/03/05 14:00:30;;;;;;;6.22;2.20;;;;;;;2.83;49.15;100878.84;2043063;85;21192;-72
2021/03/05 14:03:32;;;;;;;13.28;4.12;;;;;;;2.87;48.99;100880.31;2038885;85;21158;-72
2021/03/05 14:06:34;;;;;;;11.38;3.37;;;;;;;2.90;48.40;100875.73;2039482;85;21318;-68
2021/03/05 14:09:36;;;;;;;6.35;2.20;;;;;;;2.92;47.80;100876.92;2015170;86;21318;-68
2021/03/05 14:12:38;;;;;;;4.20;1.85;;;;;;;2.91;47.73;100887.05;2033437;85;21150;-69
2021/03/05 14:15:41;;;;;;;8.95;2.98;;;;;;;2.83;47.47;100896.71;2036125;84;21141;-68